Time;durP1;ratioP1;P1;durP2;ratioP2;P2;SDS_P1;SDS_P2;PMS_P1;PMS_P2;Temp;Humidity;BMP_temperature;BMP_pressure;BME280_temperature;BME280_humidity;BME280_pressure;Samples;Min_cycle;Max_cycle;Signal;HPM_P1;HPM_P2
2022/01/04 00:01:59;;;;;;;21.45;12.38;;;;;;;10.97;71.51;101072.38;5050077;28;20029;-89
2022/01/04 00:04:25;;;;;;;17.30;11.57;;;;;;;10.91;71.79;101079.84;5033216;28;20120;-88
2022/01/04 00:06:51;;;;;;;19.17;11.98;;;;;;;10.86;71.49;101081.31;5051077;28;20550;-89
2022/01/04 00:09:16;;;;;;;18.58;11.73;;;;;;;10.74;71.42;101062.31;5037430;28;20120;-90
2022/01/04 00:14:10;;;;;;;18.48;11.55;;;;;;;10.99;71.79;101104.72;5054404;28;20037;-89
2022/01/04 00:16:37;;;;;;;18.00;10.85;;;;;;;10.72;71.75;101069.16;5033800;28;20175;-89
2022/01/04 00:19:03;;;;;;;19.45;11.55;;;;;;;10.79;71.97;101081.75;5031645;28;20026;-89
2022/01/04 00:21:28;;;;;;;17.88;11.35;;;;;;;10.78;71.79;101091.31;5053733;28;20036;-89
2022/01/04 00:23:54;;;;;;;20.25;11.68;;;;;;;10.90;71.74;101114.66;5053676;28;20052;-89
2022/01/04 00:26:20;;;;;;;16.85;11.25;;;;;;;10.84;71.84;101115.97;5054820;28;20083;-89
2022/01/04 00:28:45;;;;;;;15.57;10.88;;;;;;;10.94;71.84;101132.31;5034306;28;20033;-88
2022/01/04 00:31:11;;;;;;;16.80;10.50;;;;;;;10.94;72.06;101140.16;5053778;28;20126;-89
2022/01/04 00:33:37;;;;;;;18.42;11.10;;;;;;;10.84;71.61;101115.97;5053607;28;20111;-89
2022/01/04 00:36:03;;;;;;;17.02;11.13;;;;;;;10.85;71.87;101129.13;5054029;28;20036;-90
2022/01/04 00:38:30;;;;;;;16.95;10.82;;;;;;;11.00;71.87;101145.69;5054766;28;20029;-89
2022/01/04 00:40:56;;;;;;;15.70;10.73;;;;;;;10.44;71.68;101045.75;5036927;28;20078;-90
2022/01/04 00:43:21;;;;;;;16.70;11.00;;;;;;;10.49;71.73;101063.47;5054459;28;20025;-90
2022/01/04 00:45:49;;;;;;;16.20;10.30;;;;;;;10.70;72.25;101097.78;5055154;28;20037;-89
2022/01/04 00:50:42;;;;;;;16.27;10.98;;;;;;;10.73;71.84;101100.59;5053327;28;20123;-90
2022/01/04 00:53:07;;;;;;;18.35;10.98;;;;;;;11.00;72.15;101150.94;5053548;28;20037;-90
2022/01/04 00:55:36;;;;;;;19.35;11.48;;;;;;;10.98;72.13;101144.75;5053594;28;20032;-90
2022/01/04 00:58:03;;;;;;;16.40;10.52;;;;;;;11.02;71.85;101151.03;5033673;28;20044;-90
2022/01/04 01:00:33;;;;;;;15.85;10.75;;;;;;;10.64;72.08;101100.03;5053504;28;20013;-90
2022/01/04 01:02:59;;;;;;;18.77;11.00;;;;;;;10.69;71.74;101105.53;5037150;28;20029;-89
2022/01/04 01:05:26;;;;;;;17.65;11.52;;;;;;;11.03;71.72;101159.75;5036890;28;20472;-90
2022/01/04 01:07:56;;;;;;;18.83;11.48;;;;;;;10.94;71.80;101153.22;5036926;28;20068;-90
2022/01/04 01:10:43;;;;;;;15.93;9.88;;;;;;;11.03;71.60;101162.38;5053737;28;20067;-90
2022/01/04 01:13:10;;;;;;;17.42;11.15;;;;;;;11.00;71.66;101164.00;5053716;28;20035;-90
2022/01/04 01:15:40;;;;;;;19.63;11.32;;;;;;;10.98;71.79;101160.41;5053614;28;20472;-91
2022/01/04 01:18:06;;;;;;;16.27;10.90;;;;;;;10.61;71.84;101093.75;5036841;28;20043;-90
2022/01/04 01:20:35;;;;;;;17.00;11.35;;;;;;;10.99;71.90;101166.53;5053173;28;20402;-91
2022/01/04 01:23:03;;;;;;;17.35;11.18;;;;;;;10.65;71.67;101106.19;5053629;28;20399;-90
2022/01/04 01:25:36;;;;;;;17.77;11.55;;;;;;;10.83;71.80;101122.91;5054648;28;20021;-90
2022/01/04 01:28:04;;;;;;;19.23;11.02;;;;;;;10.92;71.93;101139.16;5036428;28;20033;-90
2022/01/04 01:30:34;;;;;;;16.75;10.20;;;;;;;10.87;71.70;101122.28;5036613;28;20418;-90
2022/01/04 01:33:03;;;;;;;18.63;10.88;;;;;;;10.77;71.82;101092.13;5037063;28;20029;-90
2022/01/04 01:35:37;;;;;;;15.65;10.07;;;;;;;10.86;71.77;101116.97;5053105;28;20021;-90
2022/01/04 01:38:03;;;;;;;15.32;10.13;;;;;;;10.99;71.67;101135.19;5052931;28;20100;-90
2022/01/04 01:40:29;;;;;;;15.50;10.25;;;;;;;10.97;71.42;101136.81;5053065;28;20028;-90
2022/01/04 01:42:57;;;;;;;17.08;10.70;;;;;;;10.98;71.77;101138.59;5053174;28;20031;-89
2022/01/04 01:45:23;;;;;;;15.52;10.00;;;;;;;11.01;71.56;101146.63;5052309;28;20032;-89
2022/01/04 01:47:52;;;;;;;;;;;;;;;11.04;71.47;101148.50;5052418;28;20045;-90
2022/01/04 01:50:22;;;;;;;15.13;9.98;;;;;;;10.96;71.42;101158.50;5052641;28;20290;-89
2022/01/04 01:52:50;;;;;;;16.55;10.68;;;;;;;10.86;71.58;101161.38;5044354;28;20442;-90
2022/01/04 01:55:20;;;;;;;15.07;10.13;;;;;;;10.78;71.63;101154.00;5052057;28;20498;-90
2022/01/04 01:57:49;;;;;;;16.05;10.05;;;;;;;10.70;71.49;101126.53;5032545;28;20033;-91
2022/01/04 02:00:16;;;;;;;14.93;9.35;;;;;;;10.96;71.39;101162.03;5035302;28;20060;-90
2022/01/04 02:02:42;;;;;;;16.88;9.63;;;;;;;10.81;71.64;101129.75;5035899;28;20076;-90
2022/01/04 02:05:14;;;;;;;15.35;9.73;;;;;;;10.78;71.41;101125.28;5026180;28;20545;-91
2022/01/04 02:07:42;;;;;;;16.67;9.88;;;;;;;10.54;71.66;101082.94;5035344;28;20100;-90
2022/01/04 02:10:10;;;;;;;15.95;10.20;;;;;;;10.98;71.70;101149.03;5035937;28;20047;-90
2022/01/04 02:12:49;;;;;;;15.88;9.88;;;;;;;10.59;71.77;101084.09;5052453;28;20851;-90
2022/01/04 02:15:20;;;;;;;16.58;9.98;;;;;;;10.97;71.49;101153.38;5032675;28;20026;-89
2022/01/04 02:17:46;;;;;;;15.93;10.23;;;;;;;11.00;71.83;101163.09;5036893;28;20025;-90
2022/01/04 02:20:12;;;;;;;15.27;10.10;;;;;;;10.95;71.74;101159.34;5052943;28;20052;-90
2022/01/04 02:22:38;;;;;;;16.10;10.35;;;;;;;10.71;71.43;101109.13;5052098;28;20025;-89
2022/01/04 02:25:04;;;;;;;15.65;9.50;;;;;;;10.76;71.75;101110.31;5051323;28;20414;-90
2022/01/04 02:27:33;;;;;;;14.88;9.40;;;;;;;10.95;71.76;101148.88;5051256;28;20045;-89
2022/01/04 02:30:03;;;;;;;14.25;9.80;;;;;;;10.72;71.68;101108.34;5034373;28;20025;-90
2022/01/04 02:32:30;;;;;;;14.65;10.00;;;;;;;10.49;71.58;101081.75;5046387;28;20529;-90
2022/01/04 02:34:56;;;;;;;16.85;9.95;;;;;;;10.97;70.96;101152.47;5051317;28;20099;-90
2022/01/04 02:37:27;;;;;;;15.15;9.88;;;;;;;10.87;70.93;101130.13;5052796;28;20448;-90
2022/01/04 02:39:54;;;;;;;14.45;9.73;;;;;;;10.67;71.12;101102.84;5051315;28;20832;-90
2022/01/04 02:42:22;;;;;;;14.20;9.65;;;;;;;10.69;71.26;101113.38;5040384;28;20026;-89
2022/01/04 02:44:49;;;;;;;16.17;10.00;;;;;;;10.97;71.30;101165.53;5035089;28;20048;-89
2022/01/04 02:47:16;;;;;;;14.55;9.85;;;;;;;10.74;70.94;101123.28;5034316;28;20498;-89
2022/01/04 02:49:43;;;;;;;13.48;9.23;;;;;;;10.93;71.18;101163.56;5050666;28;20135;-89
2022/01/04 02:52:09;;;;;;;16.58;10.45;;;;;;;10.83;71.24;101132.47;5052378;28;20021;-90
2022/01/04 02:54:35;;;;;;;15.38;9.52;;;;;;;11.00;70.96;101150.03;5034638;28;20035;-89
2022/01/04 02:57:01;;;;;;;14.68;9.43;;;;;;;10.61;70.99;101104.22;5051012;28;20025;-90
2022/01/04 02:59:28;;;;;;;14.10;9.07;;;;;;;10.72;70.74;101135.34;5030848;28;20034;-90
2022/01/04 03:01:58;;;;;;;13.93;9.18;;;;;;;10.77;70.65;101141.78;5045645;28;20499;-90
2022/01/04 03:04:24;;;;;;;14.43;8.75;;;;;;;10.65;70.50;101103.59;5051241;28;20036;-90
2022/01/04 03:06:49;;;;;;;14.63;9.20;;;;;;;10.62;70.43;101113.81;5051140;28;20530;-90
2022/01/04 03:09:15;;;;;;;15.07;8.85;;;;;;;10.56;70.60;101096.06;5031189;28;20101;-91
2022/01/04 03:11:41;;;;;;;13.25;9.18;;;;;;;10.88;71.14;101173.75;5034439;28;20407;-90
2022/01/04 03:14:11;;;;;;;12.30;8.48;;;;;;;10.71;71.02;101130.97;5050123;28;20470;-89
2022/01/04 03:16:39;;;;;;;15.30;8.52;;;;;;;10.65;70.64;101121.88;5051547;28;20033;-90
2022/01/04 03:19:06;;;;;;;13.05;9.07;;;;;;;10.76;71.16;101147.78;5050944;28;20017;-90
2022/01/04 03:21:36;;;;;;;12.18;8.23;;;;;;;10.50;71.11;101114.91;5034162;28;20092;-90
2022/01/04 03:24:05;;;;;;;14.27;8.77;;;;;;;10.97;71.19;101187.34;5050956;28;20025;-90
2022/01/04 03:26:32;;;;;;;11.98;8.27;;;;;;;10.96;71.10;101187.25;5050695;28;20064;-89
2022/01/04 03:29:00;;;;;;;13.55;8.38;;;;;;;10.95;71.20;101188.97;5050455;28;20037;-90
2022/01/04 03:31:28;;;;;;;12.38;8.20;;;;;;;10.94;71.31;101208.09;5016806;28;20037;-90
2022/01/04 03:33:55;;;;;;;13.35;8.80;;;;;;;10.69;71.45;101169.16;5023967;28;20407;-89
2022/01/04 03:36:22;;;;;;;13.20;8.43;;;;;;;10.91;71.63;101207.00;5050177;28;20041;-88
2022/01/04 03:38:50;;;;;;;13.23;8.88;;;;;;;10.97;71.32;101221.31;5029933;28;20498;-90
2022/01/04 03:41:17;;;;;;;13.82;9.00;;;;;;;10.73;71.55;101181.56;5030880;28;20072;-88
2022/01/04 03:43:43;;;;;;;12.80;8.23;;;;;;;10.94;71.38;101215.00;5030152;28;20112;-89
2022/01/04 03:46:10;;;;;;;14.38;8.77;;;;;;;10.69;71.37;101165.59;5032942;28;20029;-90
2022/01/04 03:48:37;;;;;;;12.20;8.18;;;;;;;10.92;71.55;101214.00;5050372;28;20049;-90
2022/01/04 03:51:05;;;;;;;;;;;;;;;10.98;71.45;101207.47;5034008;28;20063;-90
2022/01/04 03:53:37;;;;;;;12.13;7.95;;;;;;;10.70;71.25;101164.81;5050567;28;20317;-91
2022/01/04 03:56:03;;;;;;;11.80;7.93;;;;;;;10.76;70.82;101176.53;5029511;28;20033;-90
2022/01/04 03:58:31;;;;;;;10.68;7.40;;;;;;;10.85;70.56;101183.09;5014075;28;20029;-89
2022/01/04 04:00:58;;;;;;;11.90;7.95;;;;;;;10.18;70.50;101063.31;5048467;28;20034;-88
2022/01/04 04:03:24;;;;;;;10.57;7.30;;;;;;;10.51;69.94;101115.81;5050233;28;20104;-89
2022/01/04 04:05:49;;;;;;;11.30;7.35;;;;;;;10.83;70.59;101188.22;5033622;28;20098;-89
2022/01/04 04:08:16;;;;;;;10.68;7.22;;;;;;;10.74;70.93;101185.09;5049936;28;20029;-90
2022/01/04 04:10:41;;;;;;;9.68;6.93;;;;;;;10.50;71.15;101132.28;5033622;28;20478;-89
2022/01/04 04:13:07;;;;;;;11.02;7.18;;;;;;;10.67;71.06;101180.28;5033444;28;20043;-89
2022/01/04 04:15:34;;;;;;;9.82;7.15;;;;;;;10.90;70.85;101215.63;5033292;28;20487;-90
2022/01/04 04:17:59;;;;;;;10.65;7.47;;;;;;;10.93;71.48;101226.28;5049450;28;20033;-88
2022/01/04 04:20:25;;;;;;;10.07;6.85;;;;;;;10.83;71.34;101226.53;5049311;28;20082;-88
2022/01/04 04:22:51;;;;;;;11.65;7.18;;;;;;;10.82;71.53;101237.81;5051095;28;20135;-89
2022/01/04 04:25:16;;;;;;;13.18;7.63;;;;;;;10.76;71.05;101234.00;5050926;28;20031;-90
2022/01/04 04:27:43;;;;;;;12.68;7.82;;;;;;;10.67;71.57;101233.44;5049652;28;20465;-89
2022/01/04 04:30:10;;;;;;;11.13;7.43;;;;;;;10.61;71.68;101242.63;5051288;28;20140;-89
2022/01/04 04:32:35;;;;;;;10.77;7.60;;;;;;;10.55;71.65;101233.59;5050019;28;20045;-89
2022/01/04 04:35:06;;;;;;;11.85;7.50;;;;;;;10.62;71.55;101260.97;5029662;28;20032;-89
2022/01/04 04:37:33;;;;;;;12.52;7.25;;;;;;;10.65;71.46;101274.25;5030484;28;20041;-90
2022/01/04 04:39:59;;;;;;;10.45;7.15;;;;;;;10.94;71.65;101330.91;5033573;28;20108;-90
2022/01/04 04:42:24;;;;;;;13.82;6.93;;;;;;;10.54;71.77;101257.91;5051091;28;20104;-91
2022/01/04 04:44:50;;;;;;;11.63;7.32;;;;;;;10.51;71.91;101262.03;5015760;28;20422;-90
2022/01/04 04:47:15;;;;;;;11.23;7.18;;;;;;;10.51;71.68;101254.19;5034293;28;20059;-91
2022/01/04 04:49:42;;;;;;;11.70;7.15;;;;;;;10.49;71.89;101254.09;5033666;28;20021;-91
2022/01/04 04:52:08;;;;;;;10.98;7.47;;;;;;;10.90;71.85;101323.69;5029501;28;20523;-90
2022/01/04 04:54:34;;;;;;;10.25;6.68;;;;;;;10.57;71.52;101267.63;5046409;28;20116;-91
2022/01/04 04:57:04;;;;;;;11.93;7.57;;;;;;;10.67;71.72;101289.97;5037648;28;20040;-90
2022/01/04 04:59:31;;;;;;;11.35;7.45;;;;;;;10.79;72.00;101314.25;5029378;28;20423;-89
2022/01/04 05:01:58;;;;;;;10.63;6.90;;;;;;;10.87;71.74;101320.84;5052921;28;20096;-89
2022/01/04 05:04:25;;;;;;;9.43;6.50;;;;;;;10.72;71.90;101301.63;5053317;28;20044;-90
2022/01/04 05:06:53;;;;;;;9.20;6.55;;;;;;;10.57;72.07;101272.84;5036379;28;20147;-91
2022/01/04 05:09:19;;;;;;;13.13;7.22;;;;;;;10.56;71.82;101277.19;5036797;28;20498;-90
2022/01/04 05:11:45;;;;;;;10.95;7.28;;;;;;;10.49;72.12;101267.16;5053672;28;20552;-90
2022/01/04 05:14:11;;;;;;;9.52;7.15;;;;;;;10.48;72.17;101264.47;5052804;28;20021;-90
2022/01/04 05:16:38;;;;;;;11.55;7.40;;;;;;;10.70;71.85;101295.41;5036913;28;20391;-90
2022/01/04 05:19:05;;;;;;;10.27;6.55;;;;;;;10.92;71.57;101334.19;5052994;28;20033;-89
2022/01/04 05:21:31;;;;;;;10.13;6.88;;;;;;;10.66;71.73;101299.53;5031645;28;20029;-90
2022/01/04 05:23:58;;;;;;;11.23;7.30;;;;;;;10.72;71.55;101307.75;5052520;28;20574;-88
2022/01/04 05:26:23;;;;;;;10.30;7.05;;;;;;;10.53;71.85;101302.19;5053175;28;20045;-87
2022/01/04 05:28:49;;;;;;;9.70;6.55;;;;;;;10.55;71.45;101292.75;5053403;28;20031;-87
2022/01/04 05:31:15;;;;;;;10.07;7.25;;;;;;;10.88;72.01;101359.25;5036381;28;20021;-89
2022/01/04 05:33:43;;;;;;;12.00;6.75;;;;;;;10.86;72.09;101360.88;5039320;28;20037;-89
2022/01/04 05:36:09;;;;;;;11.13;7.30;;;;;;;10.54;71.87;101290.94;5032407;28;20033;-89
2022/01/04 05:38:35;;;;;;;10.23;6.32;;;;;;;10.85;72.07;101337.25;5035275;28;20025;-89
2022/01/04 05:41:01;;;;;;;9.52;6.93;;;;;;;10.73;71.93;101338.31;5052495;28;20120;-90
2022/01/04 05:43:26;;;;;;;10.57;6.88;;;;;;;10.35;72.10;101273.22;5036279;28;20548;-90
2022/01/04 05:45:52;;;;;;;9.50;7.18;;;;;;;10.48;72.71;101312.34;5035899;28;20033;-90
2022/01/04 05:48:21;;;;;;;11.95;7.40;;;;;;;10.62;71.98;101312.31;5035742;28;20106;-91
2022/01/04 05:50:49;;;;;;;10.38;7.00;;;;;;;10.86;71.71;101344.28;5052634;28;20112;-91
2022/01/04 05:53:16;;;;;;;10.20;6.78;;;;;;;10.67;72.26;101326.53;5052799;28;20479;-91
2022/01/04 05:55:43;;;;;;;8.95;6.13;;;;;;;10.73;72.39;101330.47;5035818;28;20053;-89
2022/01/04 05:58:09;;;;;;;8.65;6.30;;;;;;;10.50;72.57;101294.19;5035757;28;20033;-86
2022/01/04 06:00:36;;;;;;;10.65;7.25;;;;;;;10.44;72.27;101267.69;5034142;28;20017;-90
2022/01/04 06:03:02;;;;;;;9.40;6.25;;;;;;;10.35;72.42;101270.59;5027986;28;20025;-89
2022/01/04 06:05:30;;;;;;;11.23;7.18;;;;;;;10.34;72.67;101280.16;5035022;28;20564;-91
2022/01/04 06:07:57;;;;;;;9.65;6.85;;;;;;;10.36;72.23;101280.25;5053325;28;20120;-90
2022/01/04 06:10:23;;;;;;;8.00;6.40;;;;;;;10.80;72.00;101352.66;5051468;28;20027;-88
2022/01/04 06:15:15;;;;;;;9.75;6.50;;;;;;;10.44;71.95;101302.53;5052045;28;20063;-89
2022/01/04 06:17:44;;;;;;;9.40;6.50;;;;;;;10.87;71.87;101385.28;5035110;28;20049;-89
2022/01/04 06:20:21;;;;;;;9.60;6.78;;;;;;;10.84;72.39;101392.91;5052024;28;20025;-89
2022/01/04 06:22:48;;;;;;;;;;;;;;;11.01;71.80;101384.44;5051856;28;20079;-89
2022/01/04 06:25:17;;;;;;;14.48;7.88;;;;;;;10.88;71.95;101376.63;5051526;28;19917;-89
2022/01/04 06:27:47;;;;;;;12.85;7.78;;;;;;;10.46;71.88;101300.91;5052599;28;20111;-89
2022/01/04 06:30:17;;;;;;;11.60;7.32;;;;;;;10.78;71.71;101357.78;5051645;28;20029;-88
2022/01/04 06:32:43;;;;;;;11.18;7.00;;;;;;;10.54;71.28;101319.66;5051746;28;20532;-90
2022/01/04 06:35:10;;;;;;;;;;;;;;;10.93;71.42;101396.13;5035772;28;20067;-89
2022/01/04 06:37:36;;;;;;;8.90;6.40;;;;;;;10.64;71.71;101358.59;5051797;28;19916;-89
2022/01/04 06:40:02;;;;;;;8.77;6.40;;;;;;;10.86;71.86;101409.59;5045669;28;20013;-87
2022/01/04 06:42:27;;;;;;;9.45;6.80;;;;;;;10.71;72.00;101386.94;5049977;28;20468;-86
2022/01/04 06:44:53;;;;;;;9.35;6.30;;;;;;;10.86;71.61;101410.50;5050626;28;20021;-87
2022/01/04 06:47:18;;;;;;;8.25;6.07;;;;;;;10.74;71.74;101391.44;5040529;28;20482;-86
2022/01/04 06:49:44;;;;;;;9.47;6.60;;;;;;;10.46;72.50;101379.25;5060923;28;20028;-87
2022/01/04 06:52:10;;;;;;;9.50;6.30;;;;;;;10.55;71.86;101365.88;5071076;28;20275;-87
2022/01/04 06:54:36;;;;;;;9.48;6.55;;;;;;;10.91;71.52;101424.75;5054426;28;20085;-86
2022/01/04 06:57:01;;;;;;;9.40;6.30;;;;;;;10.81;71.51;101414.53;5054135;28;20410;-88
2022/01/04 06:59:29;;;;;;;11.93;6.55;;;;;;;10.54;71.55;101378.03;5047945;28;20551;-90
2022/01/04 07:01:55;;;;;;;10.02;6.35;;;;;;;10.65;71.22;101409.16;5034895;28;20031;-89
2022/01/04 07:04:21;;;;;;;8.82;6.20;;;;;;;10.59;72.12;101417.50;5052327;28;20041;-89
2022/01/04 07:06:46;;;;;;;8.00;5.90;;;;;;;10.65;72.02;101425.72;5051542;28;20025;-88
2022/01/04 07:09:12;;;;;;;8.63;6.05;;;;;;;10.89;71.49;101457.72;5037841;28;20043;-91
2022/01/04 07:11:41;;;;;;;10.27;6.30;;;;;;;10.49;71.48;101381.16;5053606;28;20021;-90
2022/01/04 07:14:26;;;;;;;9.55;6.15;;;;;;;10.87;71.90;101433.22;5068442;28;20032;-91
2022/01/04 07:16:52;;;;;;;9.40;6.10;;;;;;;10.66;71.48;101404.00;5068004;28;20371;-87
2022/01/04 07:19:18;;;;;;;10.07;6.55;;;;;;;10.46;71.31;101370.53;5062408;28;20035;-88
2022/01/04 07:21:44;;;;;;;11.52;5.68;;;;;;;10.87;71.51;101434.94;5039985;28;20029;-87
2022/01/04 07:24:10;;;;;;;8.35;5.95;;;;;;;10.64;72.08;101413.47;5037810;28;20707;-87
2022/01/04 07:26:35;;;;;;;13.13;6.22;;;;;;;10.85;71.76;101440.03;5052061;28;20086;-87
2022/01/04 07:29:01;;;;;;;9.27;6.40;;;;;;;10.80;71.99;101441.47;5031906;28;20025;-88
2022/01/04 07:31:27;;;;;;;8.27;5.68;;;;;;;10.68;72.57;101449.41;5052919;28;20094;-87
2022/01/04 07:33:52;;;;;;;8.65;5.88;;;;;;;10.66;72.29;101435.34;5071670;28;20021;-87
2022/01/04 07:36:18;;;;;;;8.23;6.07;;;;;;;10.82;72.18;101457.25;5037185;28;20472;-89
2022/01/04 07:38:44;;;;;;;8.65;6.22;;;;;;;10.84;71.93;101460.84;5053595;28;20115;-89
2022/01/04 07:41:10;;;;;;;8.52;5.75;;;;;;;10.72;72.14;101446.19;5054239;28;20071;-90
2022/01/04 07:43:36;;;;;;;9.25;6.10;;;;;;;10.48;71.59;101402.84;5053935;28;20028;-89
2022/01/04 07:46:02;;;;;;;9.57;5.90;;;;;;;10.80;72.41;101455.44;5053788;28;20062;-90
2022/01/04 07:48:28;;;;;;;7.90;6.10;;;;;;;10.86;71.86;101462.78;5027746;28;20041;-89
2022/01/04 07:50:55;;;;;;;8.68;6.15;;;;;;;10.74;72.12;101441.09;5046099;28;20025;-88
2022/01/04 07:53:22;;;;;;;8.18;5.88;;;;;;;10.85;72.17;101449.59;5052871;28;20071;-88
2022/01/04 07:55:49;;;;;;;8.63;6.07;;;;;;;10.88;72.04;101468.06;5052862;28;20032;-89
2022/01/04 07:58:14;;;;;;;8.20;5.68;;;;;;;10.89;72.17;101468.19;5052647;28;20048;-90
2022/01/04 08:00:41;;;;;;;7.85;5.70;;;;;;;10.71;71.74;101439.19;5053779;28;20064;-89
2022/01/04 08:03:07;;;;;;;7.60;5.70;;;;;;;10.67;72.12;101426.72;5052591;28;20033;-88
2022/01/04 08:05:33;;;;;;;7.32;5.78;;;;;;;10.62;72.15;101406.34;5063396;28;20050;-89
2022/01/04 08:08:02;;;;;;;7.63;5.53;;;;;;;10.57;72.65;101414.78;5050047;28;20448;-88
2022/01/04 08:10:28;;;;;;;8.88;5.47;;;;;;;10.61;73.12;101425.44;5026791;28;20033;-88
2022/01/04 08:12:53;;;;;;;7.65;5.45;;;;;;;10.52;72.46;101405.75;5046248;28;20048;-88
2022/01/04 08:15:23;;;;;;;7.47;5.28;;;;;;;10.68;72.60;101422.41;5052731;28;20036;-89
2022/01/04 08:17:49;;;;;;;7.60;5.65;;;;;;;10.69;72.74;101426.81;5053576;28;20028;-88
2022/01/04 08:20:17;;;;;;;7.50;5.55;;;;;;;10.83;72.01;101444.28;5053503;28;20024;-88
2022/01/04 08:22:43;;;;;;;7.72;5.75;;;;;;;10.67;71.98;101413.66;5053261;28;20555;-88
2022/01/04 08:25:10;;;;;;;7.90;5.68;;;;;;;10.83;72.33;101423.38;5053587;28;20037;-88
2022/01/04 08:27:36;;;;;;;8.27;5.78;;;;;;;10.90;72.02;101445.56;5053195;28;20017;-88
2022/01/04 08:30:05;;;;;;;6.78;5.07;;;;;;;10.97;71.77;101440.81;5055730;28;20033;-90
2022/01/04 08:32:31;;;;;;;7.95;5.20;;;;;;;10.61;71.97;101396.72;5033453;28;20550;-89
2022/01/04 08:34:57;;;;;;;6.55;5.13;;;;;;;10.78;71.84;101411.75;5020733;28;20037;-89
2022/01/04 08:37:23;;;;;;;7.57;5.53;;;;;;;10.75;71.83;101411.53;5055257;28;20029;-90
2022/01/04 08:39:48;;;;;;;7.70;5.63;;;;;;;10.96;71.60;101444.28;5020842;28;20075;-89
2022/01/04 08:42:15;;;;;;;8.23;5.72;;;;;;;10.94;71.74;101434.50;5055194;28;20087;-90
2022/01/04 08:44:40;;;;;;;7.32;5.00;;;;;;;10.79;71.55;101405.69;5020614;28;20098;-89
2022/01/04 08:47:08;;;;;;;8.38;5.65;;;;;;;10.94;71.92;101437.09;5017857;28;20072;-90
2022/01/04 08:49:34;;;;;;;7.80;5.55;;;;;;;10.95;71.65;101433.72;5053989;28;20043;-88
2022/01/04 08:52:00;;;;;;;7.68;5.43;;;;;;;10.61;71.57;101368.88;5057205;28;20032;-91
2022/01/04 08:54:29;;;;;;;;;;;;;;;11.04;71.31;101418.59;5067335;28;20033;-89
2022/01/04 08:56:56;;;;;;;7.57;5.20;;;;;;;11.00;71.64;101425.31;5054358;28;19913;-89
2022/01/04 08:59:23;;;;;;;6.75;5.15;;;;;;;10.89;71.35;101404.56;5036810;28;20029;-89
2022/01/04 09:01:49;;;;;;;7.95;5.38;;;;;;;10.83;71.43;101396.34;5019927;28;20025;-89
2022/01/04 09:04:16;;;;;;;7.78;5.50;;;;;;;10.69;71.58;101377.16;5036701;28;20028;-89
2022/01/04 09:06:46;;;;;;;7.32;5.40;;;;;;;11.03;71.46;101426.31;5040335;28;20102;-89
2022/01/04 09:09:13;;;;;;;8.18;5.70;;;;;;;11.02;71.75;101414.09;5054457;28;20029;-89
2022/01/04 09:11:39;;;;;;;7.50;5.30;;;;;;;10.91;71.48;101395.13;5074068;28;20024;-90
2022/01/04 09:14:40;;;;;;;7.32;5.35;;;;;;;10.95;71.62;101403.25;5056972;28;20047;-90
2022/01/04 09:19:38;;;;;;;7.47;5.43;;;;;;;11.00;71.58;101412.25;5074231;28;20468;-89
2022/01/04 09:22:05;;;;;;;7.10;5.18;;;;;;;10.75;71.37;101372.34;5054245;28;20501;-90
2022/01/04 09:24:31;;;;;;;6.25;5.10;;;;;;;11.04;71.41;101405.53;5055770;28;20037;-88
2022/01/04 09:26:59;;;;;;;;;;;;;;;11.14;71.07;101409.63;5074225;28;20028;-90
2022/01/04 09:29:27;;;;;;;7.85;5.32;;;;;;;10.95;71.41;101391.91;5040176;28;19923;-90
2022/01/04 09:31:55;;;;;;;6.90;5.00;;;;;;;11.15;71.07;101399.28;5031881;28;20032;-90
2022/01/04 09:34:22;;;;;;;8.55;5.10;;;;;;;10.70;71.14;101318.91;5037032;28;20033;-91
2022/01/04 09:36:49;;;;;;;7.47;5.22;;;;;;;10.90;71.52;101375.00;5061095;28;20059;-91
2022/01/04 09:39:21;;;;;;;9.10;5.88;;;;;;;10.86;71.68;101367.78;5044089;28;20515;-90
2022/01/04 09:41:47;;;;;;;5.97;4.82;;;;;;;10.70;71.31;101322.44;5054420;28;20024;-88
2022/01/04 09:44:13;;;;;;;6.90;5.10;;;;;;;10.97;71.75;101393.78;5024288;28;20047;-88
2022/01/04 09:46:39;;;;;;;6.25;4.82;;;;;;;10.61;72.14;101342.75;5035914;28;20617;-88
2022/01/04 09:49:05;;;;;;;6.38;5.05;;;;;;;10.71;72.31;101357.28;5053578;28;20041;-88
2022/01/04 09:51:32;;;;;;;6.40;5.20;;;;;;;10.77;72.15;101375.94;5035797;28;20037;-88
2022/01/04 09:53:58;;;;;;;6.72;5.30;;;;;;;10.28;73.10;101297.09;5062201;28;20071;-89
2022/01/04 09:56:25;;;;;;;6.85;5.28;;;;;;;10.78;72.53;101376.06;5055155;28;20051;-89
2022/01/04 09:58:51;;;;;;;7.28;5.20;;;;;;;10.80;72.74;101381.38;5039235;28;20492;-85
2022/01/04 10:01:28;;;;;;;;;;;;;;;10.82;72.79;101379.78;5074873;28;20025;-93
2022/01/04 10:03:57;;;;;;;6.30;4.63;;;;;;;10.65;73.06;101364.75;5038721;28;20364;-93
2022/01/04 10:06:29;;;;;;;7.70;5.25;;;;;;;10.47;72.99;101331.44;5070765;28;20493;-90
2022/01/04 10:09:04;;;;;;;7.05;4.90;;;;;;;10.70;73.29;101379.91;5051525;28;20560;-91
2022/01/04 10:11:34;;;;;;;7.40;5.30;;;;;;;10.58;73.78;101363.44;5036457;28;20029;-92
2022/01/04 10:14:26;;;;;;;5.97;4.57;;;;;;;10.59;73.98;101375.72;5066571;28;20033;-91
2022/01/04 10:16:53;;;;;;;7.68;4.90;;;;;;;10.12;74.10;101296.13;5053393;28;20037;-91
2022/01/04 10:19:49;;;;;;;6.28;4.85;;;;;;;10.53;74.14;101360.53;5052177;28;20029;-91
2022/01/04 10:22:19;;;;;;;7.18;5.00;;;;;;;10.60;74.13;101356.59;5055823;28;20024;-90
2022/01/04 10:24:50;;;;;;;6.68;4.80;;;;;;;10.63;73.55;101351.59;5055659;28;20501;-85
2022/01/04 10:27:22;;;;;;;6.40;4.88;;;;;;;10.70;73.46;101342.44;5033195;28;20032;-90
2022/01/04 10:29:48;;;;;;;5.75;4.68;;;;;;;10.37;73.83;101303.84;5071574;28;20032;-88
2022/01/04 10:32:14;;;;;;;6.68;5.10;;;;;;;10.69;73.89;101333.69;5071334;28;20028;-89
2022/01/04 10:34:49;;;;;;;6.30;4.75;;;;;;;10.70;73.57;101331.97;5026140;28;20044;-88
2022/01/04 10:37:36;;;;;;;7.28;4.85;;;;;;;10.68;73.36;101318.81;5070204;28;20550;-89
2022/01/04 10:40:07;;;;;;;7.13;5.13;;;;;;;10.49;73.58;101300.19;5055294;28;20467;-89
2022/01/04 10:42:32;;;;;;;6.85;4.97;;;;;;;10.35;74.10;101271.53;5031260;28;20032;-90
2022/01/04 10:45:23;;;;;;;7.45;4.97;;;;;;;10.66;73.87;101307.38;5038387;28;20494;-89
2022/01/04 10:47:48;;;;;;;7.03;5.10;;;;;;;10.14;73.25;101203.19;5050191;28;20041;-89
2022/01/04 10:50:34;;;;;;;7.20;4.75;;;;;;;10.72;73.69;101302.53;5050884;28;20505;-90
2022/01/04 10:53:02;;;;;;;6.68;5.00;;;;;;;10.75;73.41;101312.25;5045897;28;20063;-88
2022/01/04 10:55:33;;;;;;;7.40;4.78;;;;;;;10.73;73.35;101306.97;5051850;28;20437;-90
2022/01/04 10:58:00;;;;;;;6.50;4.75;;;;;;;10.78;73.46;101323.81;5051264;28;22224;-92
2022/01/04 11:00:27;;;;;;;6.72;4.97;;;;;;;10.82;73.18;101321.41;5051415;28;20021;-91
2022/01/04 11:02:53;;;;;;;7.03;4.90;;;;;;;10.43;73.11;101243.25;5051730;28;20636;-90
2022/01/04 11:05:21;;;;;;;7.35;4.97;;;;;;;10.57;73.51;101271.13;5051104;28;20032;-90
2022/01/04 11:08:03;;;;;;;6.50;4.70;;;;;;;10.52;73.47;101269.97;5034855;28;20563;-90
2022/01/04 11:10:35;;;;;;;6.40;5.05;;;;;;;10.66;72.87;101280.34;5051329;28;20021;-90
2022/01/04 11:13:02;;;;;;;7.90;5.38;;;;;;;10.72;73.14;101305.13;5052032;28;20155;-90
2022/01/04 11:15:30;;;;;;;7.80;5.65;;;;;;;10.48;73.33;101262.75;5063657;28;20089;-90
2022/01/04 11:18:08;;;;;;;7.03;5.07;;;;;;;10.50;73.57;101266.34;5038151;28;20116;-91
2022/01/04 11:20:39;;;;;;;7.18;5.25;;;;;;;10.52;73.62;101266.44;5050824;28;20097;-89
2022/01/04 11:23:06;;;;;;;7.75;5.07;;;;;;;10.51;73.05;101241.13;5034597;28;20095;-90
2022/01/04 11:25:43;;;;;;;6.53;4.78;;;;;;;10.72;73.00;101289.47;5034234;28;20017;-90
2022/01/04 11:28:13;;;;;;;8.32;5.10;;;;;;;10.59;73.45;101266.91;5034697;28;20029;-90
2022/01/04 11:30:48;;;;;;;6.90;5.20;;;;;;;10.79;73.30;101298.56;5050547;28;20036;-89
2022/01/04 11:33:27;;;;;;;7.47;5.40;;;;;;;10.81;73.06;101291.75;5022689;28;20080;-88
2022/01/04 11:36:00;;;;;;;7.10;4.97;;;;;;;10.72;72.80;101275.50;5053530;28;20124;-91